createdAt,value
2018-09-14T00:00:52.251Z,99.90
2018-09-14T00:03:20.771Z,99.90
2018-09-14T00:05:49.502Z,99.90
2018-09-14T00:08:18.391Z,99.90
2018-09-14T00:10:46.846Z,99.90
2018-09-14T00:13:15.363Z,99.90
2018-09-14T00:15:43.851Z,99.90
2018-09-14T00:18:12.353Z,99.90
2018-09-14T00:20:40.819Z,99.90
2018-09-14T00:23:09.584Z,99.90
2018-09-14T00:25:38.055Z,99.90
2018-09-14T00:28:06.869Z,99.90
2018-09-14T00:30:35.382Z,99.90
2018-09-14T00:33:03.912Z,99.90
2018-09-14T00:35:32.627Z,99.90
2018-09-14T00:38:01.131Z,99.90
2018-09-14T00:40:29.562Z,99.90
2018-09-14T00:42:58.003Z,99.90
2018-09-14T00:45:26.583Z,99.90
2018-09-14T00:47:55.027Z,99.90
2018-09-14T00:50:23.494Z,99.90
2018-09-14T00:52:51.937Z,99.90
2018-09-14T00:55:21.196Z,99.90
2018-09-14T00:57:49.635Z,99.90
2018-09-14T01:00:18.114Z,99.90
2018-09-14T01:02:46.563Z,99.90
2018-09-14T01:05:15.339Z,99.90
2018-09-14T01:07:43.800Z,99.90
2018-09-14T01:10:12.278Z,99.90
2018-09-14T01:12:47.902Z,99.90
2018-09-14T01:15:16.386Z,99.90
2018-09-14T01:17:44.826Z,99.90
2018-09-14T01:20:13.340Z,99.90
2018-09-14T01:22:42.090Z,99.90
2018-09-14T01:25:10.887Z,99.90
2018-09-14T01:27:40.153Z,99.90
2018-09-14T01:30:08.943Z,99.90
2018-09-14T01:32:37.435Z,99.90
2018-09-14T01:35:14.102Z,99.90
2018-09-14T01:37:42.618Z,99.90
2018-09-14T01:40:11.143Z,99.90
2018-09-14T01:42:39.646Z,99.90
2018-09-14T01:45:08.278Z,99.90
2018-09-14T01:47:36.881Z,99.90
2018-09-14T01:50:05.985Z,99.90
2018-09-14T01:52:34.513Z,99.90
2018-09-14T01:55:03.105Z,99.90
2018-09-14T01:57:31.578Z,99.90
2018-09-14T02:00:00.127Z,99.90
2018-09-14T02:02:28.649Z,99.90
2018-09-14T02:04:57.127Z,99.90
2018-09-14T02:07:25.637Z,99.90
2018-09-14T02:09:54.133Z,99.90
2018-09-14T02:12:22.723Z,99.90
2018-09-14T02:14:51.227Z,99.90
2018-09-14T02:17:19.768Z,99.90
2018-09-14T02:19:48.229Z,99.90
2018-09-14T02:22:16.990Z,99.90
2018-09-14T02:24:45.435Z,99.90
2018-09-14T02:27:13.947Z,99.90
2018-09-14T02:29:42.451Z,99.90
2018-09-14T02:32:10.933Z,99.90
2018-09-14T02:34:39.489Z,99.90
2018-09-14T02:37:08.013Z,99.90
2018-09-14T02:39:36.500Z,99.90
2018-09-14T02:42:05.096Z,99.90
2018-09-14T02:44:33.588Z,99.90
2018-09-14T02:47:02.130Z,99.90
2018-09-14T02:49:30.917Z,99.90
2018-09-14T02:51:59.426Z,99.90
2018-09-14T02:54:28.052Z,99.90
2018-09-14T02:56:56.558Z,99.90
2018-09-14T02:59:25.113Z,99.90
2018-09-14T03:01:53.985Z,99.90
2018-09-14T03:04:22.711Z,99.90
2018-09-14T03:06:51.207Z,99.90
2018-09-14T03:09:19.756Z,99.90
2018-09-14T03:11:48.301Z,99.90
2018-09-14T03:14:16.814Z,99.90
2018-09-14T03:16:45.362Z,99.90
2018-09-14T03:19:13.911Z,99.90
2018-09-14T03:21:42.420Z,99.90
2018-09-14T03:24:10.958Z,99.90
2018-09-14T03:26:39.450Z,99.90
2018-09-14T03:29:07.958Z,99.90
2018-09-14T03:31:36.567Z,99.90
2018-09-14T03:34:05.071Z,99.90
2018-09-14T03:36:33.585Z,99.90
2018-09-14T03:39:02.082Z,99.90
2018-09-14T03:41:30.605Z,99.90
2018-09-14T03:43:59.071Z,99.90
2018-09-14T03:46:27.601Z,99.90
2018-09-14T03:48:56.092Z,99.90
2018-09-14T03:51:24.612Z,99.90
2018-09-14T03:53:53.156Z,99.90
2018-09-14T03:56:21.622Z,99.90
2018-09-14T03:58:50.238Z,99.90
2018-09-14T04:01:18.810Z,99.90
2018-09-14T04:03:47.480Z,99.90
2018-09-14T04:06:15.999Z,99.90
2018-09-14T04:08:44.492Z,99.90
2018-09-14T04:11:13.023Z,99.90
2018-09-14T04:13:41.509Z,99.90
2018-09-14T04:16:10.026Z,99.90
2018-09-14T04:18:38.516Z,99.90
2018-09-14T04:21:07.066Z,99.90
2018-09-14T04:23:35.554Z,99.90
2018-09-14T04:26:04.065Z,99.90
2018-09-14T04:28:32.927Z,99.90
2018-09-14T04:31:01.535Z,99.90
2018-09-14T04:33:30.027Z,99.90
2018-09-14T04:35:58.539Z,99.90
2018-09-14T04:38:27.052Z,99.90
2018-09-14T04:40:55.574Z,99.90
2018-09-14T04:43:24.059Z,99.90
2018-09-14T04:45:52.563Z,99.90
2018-09-14T04:48:21.119Z,99.90
2018-09-14T04:50:49.627Z,99.90
2018-09-14T04:53:18.111Z,99.90
2018-09-14T04:55:46.620Z,99.90
2018-09-14T04:58:15.130Z,99.90
2018-09-14T05:00:43.654Z,99.90
2018-09-14T05:03:12.179Z,99.90
2018-09-14T05:05:40.617Z,99.90
2018-09-14T05:08:09.135Z,99.90
2018-09-14T05:10:37.619Z,99.90
2018-09-14T05:13:06.159Z,99.90
2018-09-14T05:15:34.642Z,99.90
2018-09-14T05:18:04.309Z,99.90
2018-09-14T05:20:33.167Z,99.90
2018-09-14T05:23:01.886Z,99.90
2018-09-14T05:25:30.850Z,99.90
2018-09-14T05:27:59.314Z,99.90
2018-09-14T05:30:27.878Z,99.90
2018-09-14T05:32:56.388Z,99.90
2018-09-14T05:35:25.158Z,99.90
2018-09-14T05:37:53.635Z,99.90
2018-09-14T05:40:22.116Z,99.90
2018-09-14T05:42:50.566Z,99.90
2018-09-14T05:45:19.349Z,99.90
2018-09-14T05:47:47.820Z,99.90
2018-09-14T05:50:16.351Z,99.90
2018-09-14T05:52:44.828Z,99.90
2018-09-14T05:55:13.270Z,99.90
2018-09-14T05:57:41.764Z,99.90
2018-09-14T06:00:10.312Z,99.90
2018-09-14T06:02:39.112Z,99.90
2018-09-14T06:05:07.683Z,99.90
2018-09-14T06:07:36.443Z,99.90
2018-09-14T06:10:05.887Z,99.90
2018-09-14T06:12:34.363Z,99.90
2018-09-14T06:15:02.843Z,99.90
2018-09-14T06:17:31.320Z,99.90
2018-09-14T06:19:59.767Z,99.90
2018-09-14T06:22:28.290Z,99.90
2018-09-14T06:24:56.695Z,99.90
2018-09-14T06:27:25.171Z,99.90
2018-09-14T06:29:53.675Z,99.90
2018-09-14T06:32:22.135Z,99.90
2018-09-14T06:34:50.650Z,99.90
2018-09-14T06:37:19.176Z,99.90
2018-09-14T06:39:47.689Z,99.90
2018-09-14T06:42:16.287Z,99.90
2018-09-14T06:44:44.821Z,99.90
2018-09-14T06:47:13.360Z,99.90
2018-09-14T06:49:41.876Z,99.90
2018-09-14T06:52:10.426Z,99.90
2018-09-14T06:54:39.002Z,99.90
2018-09-14T06:57:07.484Z,99.90
2018-09-14T06:59:36.315Z,99.90
2018-09-14T07:02:04.852Z,99.90
2018-09-14T07:04:33.383Z,99.90
2018-09-14T07:07:01.883Z,99.90
2018-09-14T07:09:30.403Z,99.90
2018-09-14T07:11:58.898Z,99.90
2018-09-14T07:14:27.427Z,99.90
2018-09-14T07:16:55.935Z,99.90
2018-09-14T07:19:24.462Z,99.90
2018-09-14T07:21:53.007Z,99.90
2018-09-14T07:24:21.951Z,99.90
2018-09-14T07:26:50.487Z,99.90
2018-09-14T07:29:19.172Z,99.90
2018-09-14T07:31:47.805Z,99.90
2018-09-14T07:34:16.204Z,99.90
2018-09-14T07:36:44.817Z,99.90
2018-09-14T07:39:13.599Z,99.90
2018-09-14T07:41:42.606Z,99.90
2018-09-14T07:44:11.082Z,99.90
2018-09-14T07:46:39.649Z,99.90
2018-09-14T07:49:08.135Z,99.90
2018-09-14T07:51:36.635Z,99.90
2018-09-14T07:54:05.155Z,99.90
2018-09-14T07:56:33.746Z,99.90
2018-09-14T07:59:02.239Z,99.90
2018-09-14T08:01:30.752Z,99.90
2018-09-14T08:03:59.275Z,99.90
2018-09-14T08:06:27.754Z,99.90
2018-09-14T08:08:56.256Z,99.90
2018-09-14T08:11:24.758Z,99.90
2018-09-14T08:13:53.325Z,99.90
2018-09-14T08:16:21.803Z,99.90
2018-09-14T08:18:50.319Z,99.90
2018-09-14T08:21:18.874Z,99.90
2018-09-14T08:23:47.350Z,99.90
2018-09-14T08:26:16.114Z,99.90
2018-09-14T08:28:44.639Z,99.90
2018-09-14T08:31:13.157Z,99.90
2018-09-14T08:33:41.976Z,99.90
2018-09-14T08:36:10.460Z,99.90
2018-09-14T08:38:39.041Z,99.90
2018-09-14T08:41:07.540Z,99.90
2018-09-14T08:43:36.297Z,99.90
2018-09-14T08:46:04.914Z,99.90
2018-09-14T08:48:33.492Z,99.90
2018-09-14T08:51:02.264Z,99.90
2018-09-14T08:53:30.781Z,99.90
2018-09-14T08:55:59.275Z,99.90
2018-09-14T08:58:28.102Z,99.90
2018-09-14T09:00:56.659Z,99.90
2018-09-14T09:03:25.165Z,99.90
2018-09-14T09:05:53.665Z,99.90
2018-09-14T09:08:22.134Z,99.90
2018-09-14T09:10:50.682Z,99.90
2018-09-14T09:13:19.169Z,99.90
2018-09-14T09:15:47.696Z,99.90
2018-09-14T09:18:16.161Z,99.90
2018-09-14T09:20:44.700Z,99.90
2018-09-14T09:23:13.226Z,99.90
2018-09-14T09:25:42.048Z,99.90
2018-09-14T09:28:10.566Z,99.90
2018-09-14T09:30:39.058Z,99.90
2018-09-14T09:33:07.631Z,99.90
2018-09-14T09:35:36.140Z,99.90
2018-09-14T09:38:04.682Z,99.90
2018-09-14T09:40:33.133Z,99.90
2018-09-14T09:43:01.720Z,99.90
2018-09-14T09:45:30.171Z,99.90
2018-09-14T09:47:58.720Z,99.90
2018-09-14T09:50:27.219Z,99.90
2018-09-14T09:52:55.679Z,99.90
2018-09-14T09:55:24.186Z,99.90
2018-09-14T09:57:52.698Z,99.90
2018-09-14T10:00:26.496Z,99.90
2018-09-14T10:03:00.258Z,99.90
2018-09-14T10:05:34.212Z,99.90
2018-09-14T10:08:02.714Z,99.90
2018-09-14T10:13:35.459Z,99.90
2018-09-14T10:16:03.950Z,99.20
2018-09-14T10:18:32.424Z,99.90
2018-09-14T10:21:00.973Z,99.20
2018-09-14T10:23:29.457Z,99.70
2018-09-14T10:25:58.230Z,98.80
2018-09-14T10:28:26.955Z,98.70
2018-09-14T10:30:55.425Z,98.30
2018-09-14T10:33:23.935Z,98.30
2018-09-14T10:35:52.395Z,98.50
2018-09-14T10:38:20.869Z,97.90
2018-09-14T10:40:49.579Z,97.70
2018-09-14T10:43:18.124Z,97.50
2018-09-14T10:45:46.984Z,97.20
2018-09-14T10:48:15.525Z,97.00
2018-09-14T10:50:43.978Z,96.00
2018-09-14T10:53:12.431Z,96.50
2018-09-14T10:55:41.287Z,96.00
2018-09-14T10:58:10.007Z,96.60
2018-09-14T11:00:38.825Z,97.40
2018-09-14T11:03:07.281Z,97.40
2018-09-14T11:05:35.764Z,96.40
2018-09-14T11:08:04.571Z,96.40
2018-09-14T11:10:33.037Z,96.00
2018-09-14T11:13:01.897Z,96.20
2018-09-14T11:15:31.503Z,96.20
2018-09-14T11:17:59.991Z,95.90
2018-09-14T11:20:28.939Z,95.90
2018-09-14T11:22:57.408Z,95.50
2018-09-14T11:25:26.262Z,95.40
2018-09-14T11:27:54.794Z,95.10
2018-09-14T11:30:23.581Z,96.10
2018-09-14T11:32:52.026Z,95.10
2018-09-14T11:35:20.503Z,95.60
2018-09-14T11:37:49.065Z,94.10
2018-09-14T11:40:17.786Z,94.40
2018-09-14T11:42:46.685Z,94.30
2018-09-14T11:45:15.820Z,93.70
2018-09-14T11:47:44.300Z,93.90
2018-09-14T11:50:13.116Z,93.30
2018-09-14T11:52:41.947Z,93.60
2018-09-14T11:55:10.686Z,93.30
2018-09-14T11:57:39.119Z,93.30
2018-09-14T12:00:07.618Z,92.70
2018-09-14T12:02:36.387Z,92.90
2018-09-14T12:05:04.829Z,92.80
2018-09-14T12:07:36.920Z,92.50
2018-09-14T12:10:05.728Z,92.60
2018-09-14T12:12:34.827Z,93.20
2018-09-14T12:15:03.320Z,92.30
2018-09-14T12:17:32.271Z,92.50
2018-09-14T12:20:01.069Z,93.50
2018-09-14T12:22:29.835Z,93.10
2018-09-14T12:24:58.368Z,92.70
2018-09-14T12:27:26.899Z,92.50
2018-09-14T12:29:55.616Z,93.00
2018-09-14T12:32:24.155Z,92.70
2018-09-14T12:34:52.627Z,93.30
2018-09-14T12:37:21.067Z,93.90
2018-09-14T12:39:50.401Z,93.10
2018-09-14T12:42:18.855Z,93.90
2018-09-14T12:44:47.348Z,93.00
2018-09-14T12:47:15.873Z,93.80
2018-09-14T12:49:44.363Z,93.10
2018-09-14T12:52:12.856Z,92.80
2018-09-14T12:54:41.404Z,93.50
2018-09-14T12:57:09.900Z,93.10
2018-09-14T12:59:38.359Z,93.50
2018-09-14T13:02:06.933Z,93.00
2018-09-14T13:04:35.452Z,92.60
2018-09-14T13:07:04.320Z,93.20
2018-09-14T13:09:32.784Z,92.80
2018-09-14T13:12:01.241Z,92.80
2018-09-14T13:14:29.785Z,93.60
2018-09-14T13:17:00.860Z,93.50
2018-09-14T13:19:30.398Z,93.00
2018-09-14T13:21:58.864Z,93.30
2018-09-14T13:24:27.326Z,92.90
2018-09-14T13:26:55.795Z,92.50
2018-09-14T13:29:24.579Z,92.70
2018-09-14T13:31:53.080Z,93.80
2018-09-14T13:34:21.571Z,92.70
2018-09-14T13:36:50.050Z,92.20
2018-09-14T13:39:18.530Z,92.40
2018-09-14T13:41:47.008Z,92.60
2018-09-14T13:44:15.459Z,92.10
2018-09-14T13:46:44.005Z,92.60
2018-09-14T13:49:12.463Z,92.00
2018-09-14T13:51:40.939Z,92.70
2018-09-14T13:54:09.387Z,93.10
2018-09-14T13:56:37.883Z,93.70
2018-09-14T13:59:06.421Z,92.60
2018-09-14T14:01:34.909Z,92.30
2018-09-14T14:04:03.400Z,92.10
2018-09-14T14:06:31.874Z,92.80
2018-09-14T14:09:00.331Z,92.00
2018-09-14T14:11:28.802Z,91.50
2018-09-14T14:13:57.244Z,91.40
2018-09-14T14:16:25.806Z,90.90
2018-09-14T14:18:54.220Z,91.30
2018-09-14T14:21:22.710Z,90.80
2018-09-14T14:23:51.145Z,90.80
2018-09-14T14:26:19.671Z,91.60
2018-09-14T14:28:48.410Z,90.80
2018-09-14T14:31:16.895Z,90.60
2018-09-14T14:33:45.397Z,91.00
2018-09-14T14:36:13.838Z,90.50
2018-09-14T14:38:42.543Z,90.30
2018-09-14T14:41:11.053Z,89.40
2018-09-14T14:43:39.431Z,90.40
2018-09-14T14:46:07.935Z,90.40
2018-09-14T14:48:36.636Z,90.80
2018-09-14T14:51:05.338Z,91.20
2018-09-14T14:53:33.834Z,90.80
2018-09-14T14:56:02.402Z,91.20
2018-09-14T14:58:31.014Z,91.50
2018-09-14T15:00:59.491Z,91.00
2018-09-14T15:03:28.175Z,91.10
2018-09-14T15:05:56.647Z,90.30
2018-09-14T15:08:25.435Z,90.80
2018-09-14T15:10:54.143Z,90.70
2018-09-14T15:13:22.599Z,90.20
2018-09-14T15:15:51.056Z,90.50
2018-09-14T15:18:20.006Z,90.80
2018-09-14T15:20:48.466Z,90.90
2018-09-14T15:23:17.276Z,90.80
2018-09-14T15:25:46.007Z,91.30
2018-09-14T15:28:14.475Z,91.30
2018-09-14T15:30:43.506Z,91.60
2018-09-14T15:33:11.986Z,91.00
2018-09-14T15:35:40.463Z,91.10
2018-09-14T15:38:08.960Z,90.50
2018-09-14T15:40:37.474Z,90.70
2018-09-14T15:43:05.927Z,90.80
2018-09-14T15:45:34.391Z,90.50
2018-09-14T15:48:02.839Z,90.90
2018-09-14T15:50:31.313Z,91.30
2018-09-14T15:52:59.757Z,91.80
2018-09-14T15:55:28.679Z,91.80
2018-09-14T15:57:57.157Z,92.20
2018-09-14T16:00:25.651Z,92.50
2018-09-14T16:02:54.787Z,92.70
2018-09-14T16:05:23.249Z,93.00
2018-09-14T16:07:51.717Z,92.60
2018-09-14T16:10:20.175Z,92.50
2018-09-14T16:12:48.674Z,92.10
2018-09-14T16:15:17.197Z,92.10
2018-09-14T16:17:45.797Z,91.90
2018-09-14T16:20:14.240Z,92.40
2018-09-14T16:22:42.896Z,92.90
2018-09-14T16:25:11.455Z,93.00
2018-09-14T16:27:40.011Z,92.80
2018-09-14T16:30:08.479Z,92.80
2018-09-14T16:32:36.955Z,92.70
2018-09-14T16:35:05.510Z,93.20
2018-09-14T16:37:34.323Z,93.00
2018-09-14T16:40:02.845Z,93.20
2018-09-14T16:42:31.334Z,93.70
2018-09-14T16:44:59.817Z,93.60
2018-09-14T16:47:28.296Z,93.70
2018-09-14T16:49:56.756Z,94.00
2018-09-14T16:52:25.306Z,94.00
2018-09-14T16:54:54.057Z,94.30
2018-09-14T16:57:22.735Z,94.30
2018-09-14T16:59:51.218Z,94.20
2018-09-14T17:02:19.714Z,94.20
2018-09-14T17:04:48.158Z,94.10
2018-09-14T17:07:16.634Z,94.50
2018-09-14T17:09:45.070Z,94.40
2018-09-14T17:12:13.547Z,94.70
2018-09-14T17:14:42.091Z,95.00
2018-09-14T17:17:10.579Z,95.10
2018-09-14T17:19:39.059Z,94.90
2018-09-14T17:22:07.630Z,95.70
2018-09-14T17:24:36.105Z,95.20
2018-09-14T17:27:04.601Z,95.40
2018-09-14T17:29:33.075Z,95.90
2018-09-14T17:32:01.521Z,96.20
2018-09-14T17:34:29.968Z,96.20
2018-09-14T17:36:58.735Z,95.80
2018-09-14T17:39:27.508Z,95.90
2018-09-14T17:41:56.234Z,95.90
2018-09-14T17:44:24.718Z,96.00
2018-09-14T17:46:53.443Z,96.10
2018-09-14T17:49:21.928Z,96.40
2018-09-14T17:51:50.714Z,96.50
2018-09-14T17:54:19.510Z,96.70
2018-09-14T17:56:48.044Z,96.90
2018-09-14T17:59:16.540Z,96.60
2018-09-14T18:01:45.078Z,96.50
2018-09-14T18:04:13.498Z,96.70
2018-09-14T18:06:42.256Z,96.90
2018-09-14T18:09:12.175Z,96.90
2018-09-14T18:11:41.187Z,97.00
2018-09-14T18:14:10.047Z,97.50
2018-09-14T18:16:38.520Z,97.70
2018-09-14T18:19:07.016Z,97.80
2018-09-14T18:21:35.502Z,98.20
2018-09-14T18:24:03.954Z,98.30
2018-09-14T18:26:32.406Z,98.30
2018-09-14T18:29:00.930Z,98.50
2018-09-14T18:31:29.399Z,98.40
2018-09-14T18:33:58.119Z,98.90
2018-09-14T18:36:26.559Z,99.00
2018-09-14T18:38:55.283Z,98.80
2018-09-14T18:41:24.062Z,98.70
2018-09-14T18:43:52.540Z,98.40
2018-09-14T18:46:21.038Z,98.70
2018-09-14T18:48:49.554Z,98.20
2018-09-14T18:51:18.055Z,97.90
2018-09-14T18:53:46.815Z,97.90
2018-09-14T18:56:15.255Z,97.90
2018-09-14T18:58:43.743Z,97.90
2018-09-14T19:01:12.246Z,97.90
2018-09-14T19:03:40.779Z,98.50
2018-09-14T19:06:09.282Z,98.60
2018-09-14T19:08:38.565Z,98.40
2018-09-14T19:11:07.088Z,98.20
2018-09-14T19:13:35.545Z,97.60
2018-09-14T19:16:04.374Z,97.90
2018-09-14T19:18:32.847Z,97.90
2018-09-14T19:21:01.363Z,97.40
2018-09-14T19:23:30.150Z,97.40
2018-09-14T19:25:58.652Z,97.70
2018-09-14T19:28:27.124Z,97.90
2018-09-14T19:30:55.615Z,98.10
2018-09-14T19:33:24.367Z,97.60
2018-09-14T19:35:53.891Z,98.40
2018-09-14T19:38:23.223Z,99.10
2018-09-14T19:40:51.679Z,99.70
2018-09-14T19:43:20.971Z,99.90
2018-09-14T19:45:49.478Z,99.90
2018-09-14T19:48:18.387Z,99.90
2018-09-14T19:50:47.704Z,99.90
2018-09-14T19:53:16.204Z,99.90
2018-09-14T19:55:44.674Z,99.90
2018-09-14T19:58:13.965Z,99.90
2018-09-14T20:00:42.479Z,99.90
2018-09-14T20:03:11.243Z,99.90
2018-09-14T20:05:39.703Z,99.90
2018-09-14T20:08:08.195Z,99.90
2018-09-14T20:10:36.986Z,99.90
2018-09-14T20:13:05.453Z,99.90
2018-09-14T20:15:33.911Z,99.90
2018-09-14T20:18:02.563Z,99.90
2018-09-14T20:20:31.016Z,99.90
2018-09-14T20:22:59.487Z,99.90
2018-09-14T20:25:27.948Z,99.90
2018-09-14T20:27:56.484Z,99.90
2018-09-14T20:30:24.998Z,99.90
2018-09-14T20:32:53.468Z,99.90
2018-09-14T20:35:22.139Z,99.60
2018-09-14T20:37:50.952Z,99.90
2018-09-14T20:40:19.735Z,99.90
2018-09-14T20:42:48.226Z,99.90
2018-09-14T20:45:16.696Z,99.90
2018-09-14T20:47:45.180Z,99.90
2018-09-14T20:50:13.700Z,99.90
2018-09-14T20:52:42.189Z,99.90
2018-09-14T20:55:10.638Z,99.90
2018-09-14T20:57:39.116Z,99.90
2018-09-14T21:00:07.787Z,99.90
2018-09-14T21:02:36.280Z,99.90
2018-09-14T21:05:04.859Z,99.90
2018-09-14T21:07:33.615Z,99.90
2018-09-14T21:10:02.404Z,99.90
2018-09-14T21:12:30.976Z,99.90
2018-09-14T21:14:59.443Z,99.90
2018-09-14T21:17:27.951Z,99.90
2018-09-14T21:19:56.399Z,99.90
2018-09-14T21:22:24.880Z,99.90
2018-09-14T21:24:53.342Z,99.90
2018-09-14T21:27:21.834Z,99.90
2018-09-14T21:29:50.331Z,99.90
2018-09-14T21:32:18.814Z,99.90
2018-09-14T21:34:47.289Z,99.90
2018-09-14T21:37:15.782Z,99.90
2018-09-14T21:39:44.496Z,99.90
2018-09-14T21:42:12.985Z,99.90
2018-09-14T21:44:41.401Z,99.50
2018-09-14T21:47:12.182Z,98.60
2018-09-14T21:49:40.759Z,98.30
2018-09-14T21:52:09.232Z,98.20
2018-09-14T21:54:37.711Z,98.10
2018-09-14T21:57:06.136Z,98.10
2018-09-14T21:59:34.616Z,98.30
2018-09-14T22:02:03.073Z,98.20
2018-09-14T22:04:31.552Z,98.20
2018-09-14T22:06:59.998Z,98.20
2018-09-14T22:09:28.463Z,98.00
2018-09-14T22:11:56.915Z,98.00
2018-09-14T22:14:25.384Z,97.90
2018-09-14T22:16:54.117Z,97.70
2018-09-14T22:19:22.597Z,97.80
2018-09-14T22:21:57.477Z,97.90
2018-09-14T22:24:26.721Z,97.50
2018-09-14T22:26:55.182Z,97.70
2018-09-14T22:29:23.731Z,97.60
2018-09-14T22:31:52.422Z,97.00
2018-09-14T22:34:20.939Z,96.90
2018-09-14T22:36:49.358Z,97.00
2018-09-14T22:39:17.866Z,96.90
2018-09-14T22:41:46.304Z,96.70
2018-09-14T22:44:14.774Z,96.90
2018-09-14T22:46:43.211Z,96.90
2018-09-14T22:49:11.716Z,97.00
2018-09-14T22:51:40.267Z,96.90
2018-09-14T22:54:08.722Z,97.00
2018-09-14T22:56:37.164Z,96.90
2018-09-14T22:59:05.938Z,97.00
2018-09-14T23:01:34.750Z,97.10
2018-09-14T23:04:03.220Z,97.30
2018-09-14T23:06:31.770Z,97.30
2018-09-14T23:09:00.248Z,97.50
2018-09-14T23:11:28.739Z,97.70
2018-09-14T23:13:57.177Z,98.00
2018-09-14T23:16:25.650Z,98.10
2018-09-14T23:18:54.119Z,98.20
2018-09-14T23:21:22.672Z,98.20
2018-09-14T23:23:51.109Z,98.40
2018-09-14T23:26:21.959Z,98.40
2018-09-14T23:28:50.416Z,98.50
2018-09-14T23:31:18.873Z,98.20
2018-09-14T23:33:47.558Z,98.70
2018-09-14T23:36:16.018Z,98.80
2018-09-14T23:38:44.477Z,98.50
2018-09-14T23:41:12.930Z,98.50
2018-09-14T23:43:41.355Z,98.40
2018-09-14T23:46:10.171Z,98.50
2018-09-14T23:48:38.616Z,98.30
2018-09-14T23:51:07.377Z,98.50
2018-09-14T23:53:35.909Z,98.50
2018-09-14T23:56:04.702Z,98.50
2018-09-14T23:58:33.184Z,98.70
